
<gpx xmlns="http://www.topografix.com/GPX/1/1" xmlns:gpxx="http://www.garmin.com/xmlschemas/GpxExtensions/v3" xmlns:xsi="http://www.w3.org/2001/XMLSchema-instance" version="1.1" creator="Adze - http://kobotsw.com/apps/adze" xsi:schemaLocation="http://www.topografix.com/GPX/1/1 http://www.topografix.com/GPX/1/1/gpx.xsd http://www.garmin.com/xmlschemas/GpxExtensions/v3 http://www.garmin.com/xmlschemas/GpxExtensionsv3.xsd">
    <metadata>
        <name>Untitled Document</name>
        <link href="http://www.garmin.com"></link>
        <time>2018-02-26T06:41:25.199Z</time>
    </metadata>
    <wpt lon="99.889427" lat="12.705905">
        <ele>72.000000</ele>
        <name>Imperial</name>
        <cmt>26-AUG-11 15:49:46</cmt>
        <desc>26-AUG-11 15:49:46</desc>
        <sym>Lodging</sym>
        <extensions>
            <gpxx:WaypointExtension xmlns:gpxx="http://www.garmin.com/xmlschemas/GpxExtensions/v3">
                <gpxx:DisplayMode>SymbolOnly</gpxx:DisplayMode>
            </gpxx:WaypointExtension>
        </extensions>
    </wpt>
    <wpt lon="99.906189" lat="12.723127">
        <ele>40.000000</ele>
        <time>2014-09-28T04:21:09Z</time>
        <name>Water Sunday</name>
        <sym>Drinking Water</sym>
        <extensions>
            <gpxx:WaypointExtension xmlns:gpxx="http://www.garmin.com/xmlschemas/GpxExtensions/v3">
                <gpxx:DisplayMode>SymbolOnly</gpxx:DisplayMode>
            </gpxx:WaypointExtension>
        </extensions>
    </wpt>
    <trk>
        <name>Sunday</name>
        <extensions>
            <gpxx:TrackExtension xmlns:gpxx="http://www.garmin.com/xmlschemas/GpxExtensions/v3">
                <gpxx:DisplayColor>Green</gpxx:DisplayColor>
            </gpxx:TrackExtension>
        </extensions>
        <trkseg>
            <trkpt lon="99.889514" lat="12.706225">
                <ele>70.310000</ele>
                <time>2014-09-28T02:47:45Z</time>
            </trkpt>
            <trkpt lon="99.889634" lat="12.706044">
                <ele>72.720000</ele>
                <time>2014-09-28T02:48:08Z</time>
            </trkpt>
            <trkpt lon="99.889971" lat="12.706217">
                <ele>73.200000</ele>
                <time>2014-09-28T02:48:22Z</time>
            </trkpt>
            <trkpt lon="99.890094" lat="12.706533">
                <ele>81.370000</ele>
                <time>2014-09-28T02:50:38Z</time>
            </trkpt>
            <trkpt lon="99.890115" lat="12.706578">
                <ele>76.080000</ele>
                <time>2014-09-28T02:59:15Z</time>
            </trkpt>
            <trkpt lon="99.890154" lat="12.706136">
                <ele>75.600000</ele>
                <time>2014-09-28T03:03:36Z</time>
            </trkpt>
            <trkpt lon="99.890211" lat="12.705867">
                <ele>74.160000</ele>
                <time>2014-09-28T03:03:44Z</time>
            </trkpt>
            <trkpt lon="99.890980" lat="12.706272">
                <ele>72.720000</ele>
                <time>2014-09-28T03:04:03Z</time>
            </trkpt>
            <trkpt lon="99.892112" lat="12.706300">
                <ele>72.720000</ele>
                <time>2014-09-28T03:04:24Z</time>
            </trkpt>
            <trkpt lon="99.892475" lat="12.706095">
                <ele>71.760000</ele>
                <time>2014-09-28T03:04:35Z</time>
            </trkpt>
            <trkpt lon="99.892803" lat="12.705448">
                <ele>69.350000</ele>
                <time>2014-09-28T03:04:47Z</time>
            </trkpt>
            <trkpt lon="99.893377" lat="12.704624">
                <ele>66.470000</ele>
                <time>2014-09-28T03:05:02Z</time>
            </trkpt>
            <trkpt lon="99.893422" lat="12.704404">
                <ele>65.030000</ele>
                <time>2014-09-28T03:05:05Z</time>
            </trkpt>
            <trkpt lon="99.893571" lat="12.701288">
                <ele>61.660000</ele>
                <time>2014-09-28T03:06:50Z</time>
            </trkpt>
            <trkpt lon="99.894277" lat="12.701035">
                <ele>65.990000</ele>
                <time>2014-09-28T03:07:19Z</time>
            </trkpt>
            <trkpt lon="99.894367" lat="12.700784">
                <ele>65.030000</ele>
                <time>2014-09-28T03:07:40Z</time>
            </trkpt>
            <trkpt lon="99.894239" lat="12.705193">
                <ele>74.160000</ele>
                <time>2014-09-28T03:10:12Z</time>
            </trkpt>
            <trkpt lon="99.893753" lat="12.705352">
                <ele>74.640000</ele>
                <time>2014-09-28T03:10:30Z</time>
            </trkpt>
            <trkpt lon="99.893551" lat="12.705628">
                <ele>76.080000</ele>
                <time>2014-09-28T03:10:41Z</time>
            </trkpt>
            <trkpt lon="99.893434" lat="12.705975">
                <ele>74.640000</ele>
                <time>2014-09-28T03:10:56Z</time>
            </trkpt>
            <trkpt lon="99.893957" lat="12.707859">
                <ele>83.770000</ele>
                <time>2014-09-28T03:12:03Z</time>
            </trkpt>
            <trkpt lon="99.893573" lat="12.708484">
                <ele>83.290000</ele>
                <time>2014-09-28T03:12:24Z</time>
            </trkpt>
            <trkpt lon="99.893329" lat="12.709322">
                <ele>78.970000</ele>
                <time>2014-09-28T03:12:43Z</time>
            </trkpt>
            <trkpt lon="99.893041" lat="12.709938">
                <ele>74.640000</ele>
                <time>2014-09-28T03:12:59Z</time>
            </trkpt>
            <trkpt lon="99.892980" lat="12.710433">
                <ele>70.790000</ele>
                <time>2014-09-28T03:13:11Z</time>
            </trkpt>
            <trkpt lon="99.892954" lat="12.710517">
                <ele>70.310000</ele>
                <time>2014-09-28T03:13:13Z</time>
            </trkpt>
            <trkpt lon="99.892911" lat="12.710795">
                <ele>68.390000</ele>
                <time>2014-09-28T03:13:20Z</time>
            </trkpt>
            <trkpt lon="99.893711" lat="12.711452">
                <ele>73.680000</ele>
                <time>2014-09-28T03:13:54Z</time>
            </trkpt>
            <trkpt lon="99.893700" lat="12.711755">
                <ele>77.520000</ele>
                <time>2014-09-28T03:14:06Z</time>
            </trkpt>
            <trkpt lon="99.893527" lat="12.712286">
                <ele>75.120000</ele>
                <time>2014-09-28T03:14:26Z</time>
            </trkpt>
            <trkpt lon="99.891391" lat="12.712780">
                <ele>68.870000</ele>
                <time>2014-09-28T03:15:14Z</time>
            </trkpt>
            <trkpt lon="99.890987" lat="12.713163">
                <ele>64.550000</ele>
                <time>2014-09-28T03:15:26Z</time>
            </trkpt>
            <trkpt lon="99.890287" lat="12.712996">
                <ele>64.070000</ele>
                <time>2014-09-28T03:15:42Z</time>
            </trkpt>
            <trkpt lon="99.889869" lat="12.712792">
                <ele>66.470000</ele>
                <time>2014-09-28T03:16:00Z</time>
            </trkpt>
            <trkpt lon="99.889341" lat="12.712464">
                <ele>68.870000</ele>
                <time>2014-09-28T03:16:16Z</time>
            </trkpt>
            <trkpt lon="99.888422" lat="12.712545">
                <ele>65.030000</ele>
                <time>2014-09-28T03:16:45Z</time>
            </trkpt>
            <trkpt lon="99.887810" lat="12.712903">
                <ele>63.580000</ele>
                <time>2014-09-28T03:17:04Z</time>
            </trkpt>
            <trkpt lon="99.887223" lat="12.713053">
                <ele>59.260000</ele>
                <time>2014-09-28T03:17:19Z</time>
            </trkpt>
            <trkpt lon="99.886619" lat="12.712767">
                <ele>59.260000</ele>
                <time>2014-09-28T03:17:39Z</time>
            </trkpt>
            <trkpt lon="99.886209" lat="12.712327">
                <ele>70.790000</ele>
                <time>2014-09-28T03:17:58Z</time>
            </trkpt>
            <trkpt lon="99.886081" lat="12.712391">
                <ele>72.240000</ele>
                <time>2014-09-28T03:18:05Z</time>
            </trkpt>
            <trkpt lon="99.885792" lat="12.712390">
                <ele>69.350000</ele>
                <time>2014-09-28T03:18:19Z</time>
            </trkpt>
            <trkpt lon="99.885261" lat="12.711840">
                <ele>73.200000</ele>
                <time>2014-09-28T03:18:59Z</time>
            </trkpt>
            <trkpt lon="99.885128" lat="12.711709">
                <ele>72.240000</ele>
                <time>2014-09-28T03:19:26Z</time>
            </trkpt>
            <trkpt lon="99.885021" lat="12.711681">
                <ele>64.550000</ele>
                <time>2014-09-28T03:20:15Z</time>
            </trkpt>
            <trkpt lon="99.884959" lat="12.711452">
                <ele>63.580000</ele>
                <time>2014-09-28T03:20:40Z</time>
            </trkpt>
            <trkpt lon="99.884706" lat="12.711261">
                <ele>61.660000</ele>
                <time>2014-09-28T03:21:08Z</time>
            </trkpt>
            <trkpt lon="99.884572" lat="12.711165">
                <ele>62.620000</ele>
                <time>2014-09-28T03:21:16Z</time>
            </trkpt>
            <trkpt lon="99.884371" lat="12.710983">
                <ele>59.740000</ele>
                <time>2014-09-28T03:21:26Z</time>
            </trkpt>
            <trkpt lon="99.884281" lat="12.710891">
                <ele>59.260000</ele>
                <time>2014-09-28T03:21:30Z</time>
            </trkpt>
            <trkpt lon="99.884145" lat="12.709972">
                <ele>70.790000</ele>
                <time>2014-09-28T03:23:04Z</time>
            </trkpt>
            <trkpt lon="99.884073" lat="12.709956">
                <ele>70.790000</ele>
                <time>2014-09-28T03:23:08Z</time>
            </trkpt>
            <trkpt lon="99.883665" lat="12.708872">
                <ele>58.780000</ele>
                <time>2014-09-28T03:24:12Z</time>
            </trkpt>
            <trkpt lon="99.883383" lat="12.708757">
                <ele>59.260000</ele>
                <time>2014-09-28T03:24:22Z</time>
            </trkpt>
            <trkpt lon="99.883107" lat="12.708100">
                <ele>58.300000</ele>
                <time>2014-09-28T03:24:45Z</time>
            </trkpt>
            <trkpt lon="99.882843" lat="12.707786">
                <ele>58.780000</ele>
                <time>2014-09-28T03:24:57Z</time>
            </trkpt>
            <trkpt lon="99.882329" lat="12.707739">
                <ele>56.860000</ele>
                <time>2014-09-28T03:25:19Z</time>
            </trkpt>
            <trkpt lon="99.882221" lat="12.707715">
                <ele>56.370000</ele>
                <time>2014-09-28T03:25:25Z</time>
            </trkpt>
            <trkpt lon="99.882134" lat="12.707382">
                <ele>57.820000</ele>
                <time>2014-09-28T03:25:40Z</time>
            </trkpt>
            <trkpt lon="99.881885" lat="12.707243">
                <ele>61.660000</ele>
                <time>2014-09-28T03:25:55Z</time>
            </trkpt>
            <trkpt lon="99.881778" lat="12.707205">
                <ele>64.070000</ele>
                <time>2014-09-28T03:26:02Z</time>
            </trkpt>
            <trkpt lon="99.881765" lat="12.707214">
                <ele>64.070000</ele>
                <time>2014-09-28T03:26:03Z</time>
            </trkpt>
            <trkpt lon="99.881338" lat="12.708816">
                <ele>64.070000</ele>
                <time>2014-09-28T03:26:52Z</time>
            </trkpt>
            <trkpt lon="99.880870" lat="12.708920">
                <ele>63.100000</ele>
                <time>2014-09-28T03:27:18Z</time>
            </trkpt>
            <trkpt lon="99.880798" lat="12.709437">
                <ele>59.260000</ele>
                <time>2014-09-28T03:27:59Z</time>
            </trkpt>
            <trkpt lon="99.880885" lat="12.709810">
                <ele>61.180000</ele>
                <time>2014-09-28T03:29:03Z</time>
            </trkpt>
            <trkpt lon="99.881208" lat="12.710020">
                <ele>62.140000</ele>
                <time>2014-09-28T03:30:08Z</time>
            </trkpt>
            <trkpt lon="99.881398" lat="12.710081">
                <ele>62.620000</ele>
                <time>2014-09-28T03:30:21Z</time>
            </trkpt>
            <trkpt lon="99.881438" lat="12.710093">
                <ele>62.620000</ele>
                <time>2014-09-28T03:30:23Z</time>
            </trkpt>
            <trkpt lon="99.881483" lat="12.710117">
                <ele>62.620000</ele>
                <time>2014-09-28T03:30:25Z</time>
            </trkpt>
            <trkpt lon="99.881777" lat="12.710425">
                <ele>61.660000</ele>
                <time>2014-09-28T03:30:38Z</time>
            </trkpt>
            <trkpt lon="99.881733" lat="12.711065">
                <ele>60.220000</ele>
                <time>2014-09-28T03:30:54Z</time>
            </trkpt>
            <trkpt lon="99.881491" lat="12.712908">
                <ele>56.860000</ele>
                <time>2014-09-28T03:31:37Z</time>
            </trkpt>
            <trkpt lon="99.881305" lat="12.713178">
                <ele>58.780000</ele>
                <time>2014-09-28T03:31:46Z</time>
            </trkpt>
            <trkpt lon="99.881196" lat="12.713291">
                <ele>59.260000</ele>
                <time>2014-09-28T03:31:52Z</time>
            </trkpt>
            <trkpt lon="99.881174" lat="12.713293">
                <ele>58.780000</ele>
                <time>2014-09-28T03:31:53Z</time>
            </trkpt>
            <trkpt lon="99.880854" lat="12.713574">
                <ele>59.740000</ele>
                <time>2014-09-28T03:32:09Z</time>
            </trkpt>
            <trkpt lon="99.880709" lat="12.713824">
                <ele>56.860000</ele>
                <time>2014-09-28T03:32:18Z</time>
            </trkpt>
            <trkpt lon="99.880862" lat="12.714082">
                <ele>53.970000</ele>
                <time>2014-09-28T03:32:30Z</time>
            </trkpt>
            <trkpt lon="99.881437" lat="12.714226">
                <ele>53.490000</ele>
                <time>2014-09-28T03:32:45Z</time>
            </trkpt>
            <trkpt lon="99.881717" lat="12.715726">
                <ele>58.780000</ele>
                <time>2014-09-28T03:33:34Z</time>
            </trkpt>
            <trkpt lon="99.881714" lat="12.715872">
                <ele>58.300000</ele>
                <time>2014-09-28T03:33:37Z</time>
            </trkpt>
            <trkpt lon="99.881740" lat="12.716202">
                <ele>57.340000</ele>
                <time>2014-09-28T03:33:44Z</time>
            </trkpt>
            <trkpt lon="99.881910" lat="12.716415">
                <ele>57.820000</ele>
                <time>2014-09-28T03:33:50Z</time>
            </trkpt>
            <trkpt lon="99.882275" lat="12.716935">
                <ele>56.860000</ele>
                <time>2014-09-28T03:34:06Z</time>
            </trkpt>
            <trkpt lon="99.881873" lat="12.718948">
                <ele>56.860000</ele>
                <time>2014-09-28T03:34:52Z</time>
            </trkpt>
            <trkpt lon="99.881801" lat="12.719490">
                <ele>56.860000</ele>
                <time>2014-09-28T03:35:11Z</time>
            </trkpt>
            <trkpt lon="99.881378" lat="12.719611">
                <ele>55.890000</ele>
                <time>2014-09-28T03:35:31Z</time>
            </trkpt>
            <trkpt lon="99.880753" lat="12.719510">
                <ele>60.700000</ele>
                <time>2014-09-28T03:35:49Z</time>
            </trkpt>
            <trkpt lon="99.880210" lat="12.719411">
                <ele>61.660000</ele>
                <time>2014-09-28T03:36:04Z</time>
            </trkpt>
            <trkpt lon="99.879936" lat="12.720434">
                <ele>63.580000</ele>
                <time>2014-09-28T03:36:29Z</time>
            </trkpt>
            <trkpt lon="99.879566" lat="12.721245">
                <ele>64.070000</ele>
                <time>2014-09-28T03:36:46Z</time>
            </trkpt>
            <trkpt lon="99.878423" lat="12.721854">
                <ele>66.470000</ele>
                <time>2014-09-28T03:37:13Z</time>
            </trkpt>
            <trkpt lon="99.877219" lat="12.722809">
                <ele>66.950000</ele>
                <time>2014-09-28T03:37:44Z</time>
            </trkpt>
            <trkpt lon="99.876625" lat="12.723441">
                <ele>67.910000</ele>
                <time>2014-09-28T03:38:00Z</time>
            </trkpt>
            <trkpt lon="99.875948" lat="12.723867">
                <ele>69.830000</ele>
                <time>2014-09-28T03:38:16Z</time>
            </trkpt>
            <trkpt lon="99.875247" lat="12.724033">
                <ele>73.200000</ele>
                <time>2014-09-28T03:38:34Z</time>
            </trkpt>
            <trkpt lon="99.874364" lat="12.724447">
                <ele>75.600000</ele>
                <time>2014-09-28T03:39:04Z</time>
            </trkpt>
            <trkpt lon="99.873819" lat="12.724629">
                <ele>75.120000</ele>
                <time>2014-09-28T03:39:21Z</time>
            </trkpt>
            <trkpt lon="99.873320" lat="12.725244">
                <ele>75.600000</ele>
                <time>2014-09-28T03:39:45Z</time>
            </trkpt>
            <trkpt lon="99.873133" lat="12.724694">
                <ele>75.600000</ele>
                <time>2014-09-28T03:40:06Z</time>
            </trkpt>
            <trkpt lon="99.872910" lat="12.724492">
                <ele>77.040000</ele>
                <time>2014-09-28T03:40:16Z</time>
            </trkpt>
            <trkpt lon="99.871641" lat="12.724398">
                <ele>79.450000</ele>
                <time>2014-09-28T03:41:04Z</time>
            </trkpt>
            <trkpt lon="99.870944" lat="12.724423">
                <ele>82.330000</ele>
                <time>2014-09-28T03:41:34Z</time>
            </trkpt>
            <trkpt lon="99.870244" lat="12.724798">
                <ele>87.140000</ele>
                <time>2014-09-28T03:42:15Z</time>
            </trkpt>
            <trkpt lon="99.869599" lat="12.724896">
                <ele>90.020000</ele>
                <time>2014-09-28T03:42:36Z</time>
            </trkpt>
            <trkpt lon="99.869275" lat="12.725490">
                <ele>91.940000</ele>
                <time>2014-09-28T03:43:12Z</time>
            </trkpt>
            <trkpt lon="99.869362" lat="12.726072">
                <ele>94.830000</ele>
                <time>2014-09-28T03:43:41Z</time>
            </trkpt>
            <trkpt lon="99.869803" lat="12.727322">
                <ele>85.210000</ele>
                <time>2014-09-28T03:44:46Z</time>
            </trkpt>
            <trkpt lon="99.869424" lat="12.727476">
                <ele>87.140000</ele>
                <time>2014-09-28T03:45:13Z</time>
            </trkpt>
            <trkpt lon="99.869356" lat="12.727496">
                <ele>87.140000</ele>
                <time>2014-09-28T03:45:36Z</time>
            </trkpt>
            <trkpt lon="99.869053" lat="12.727509">
                <ele>87.620000</ele>
                <time>2014-09-28T03:46:11Z</time>
            </trkpt>
            <trkpt lon="99.868792" lat="12.727163">
                <ele>89.540000</ele>
                <time>2014-09-28T03:46:31Z</time>
            </trkpt>
            <trkpt lon="99.868700" lat="12.726749">
                <ele>90.500000</ele>
                <time>2014-09-28T03:46:45Z</time>
            </trkpt>
            <trkpt lon="99.868558" lat="12.726414">
                <ele>89.540000</ele>
                <time>2014-09-28T03:46:55Z</time>
            </trkpt>
            <trkpt lon="99.868381" lat="12.725923">
                <ele>89.060000</ele>
                <time>2014-09-28T03:47:17Z</time>
            </trkpt>
            <trkpt lon="99.868425" lat="12.725850">
                <ele>86.660000</ele>
                <time>2014-09-28T03:47:30Z</time>
            </trkpt>
            <trkpt lon="99.867805" lat="12.725087">
                <ele>85.210000</ele>
                <time>2014-09-28T03:48:04Z</time>
            </trkpt>
            <trkpt lon="99.867581" lat="12.724943">
                <ele>84.730000</ele>
                <time>2014-09-28T03:48:10Z</time>
            </trkpt>
            <trkpt lon="99.866790" lat="12.724856">
                <ele>84.250000</ele>
                <time>2014-09-28T03:48:30Z</time>
            </trkpt>
            <trkpt lon="99.865654" lat="12.724951">
                <ele>84.250000</ele>
                <time>2014-09-28T03:49:00Z</time>
            </trkpt>
            <trkpt lon="99.865458" lat="12.724975">
                <ele>84.730000</ele>
                <time>2014-09-28T03:49:12Z</time>
            </trkpt>
            <trkpt lon="99.865264" lat="12.724744">
                <ele>87.620000</ele>
                <time>2014-09-28T03:49:38Z</time>
            </trkpt>
            <trkpt lon="99.864691" lat="12.724785">
                <ele>87.620000</ele>
                <time>2014-09-28T03:49:56Z</time>
            </trkpt>
            <trkpt lon="99.863298" lat="12.726129">
                <ele>90.500000</ele>
                <time>2014-09-28T03:51:07Z</time>
            </trkpt>
            <trkpt lon="99.863005" lat="12.726535">
                <ele>92.900000</ele>
                <time>2014-09-28T03:51:32Z</time>
            </trkpt>
            <trkpt lon="99.863444" lat="12.726988">
                <ele>93.390000</ele>
                <time>2014-09-28T03:51:50Z</time>
            </trkpt>
            <trkpt lon="99.863668" lat="12.727559">
                <ele>93.390000</ele>
                <time>2014-09-28T03:52:05Z</time>
            </trkpt>
            <trkpt lon="99.863974" lat="12.727955">
                <ele>90.500000</ele>
                <time>2014-09-28T03:52:14Z</time>
            </trkpt>
            <trkpt lon="99.864169" lat="12.729211">
                <ele>93.870000</ele>
                <time>2014-09-28T03:52:49Z</time>
            </trkpt>
            <trkpt lon="99.864220" lat="12.729262">
                <ele>93.870000</ele>
                <time>2014-09-28T03:52:52Z</time>
            </trkpt>
            <trkpt lon="99.865110" lat="12.729153">
                <ele>99.150000</ele>
                <time>2014-09-28T03:53:27Z</time>
            </trkpt>
            <trkpt lon="99.865570" lat="12.729153">
                <ele>100.600000</ele>
                <time>2014-09-28T03:53:42Z</time>
            </trkpt>
            <trkpt lon="99.866348" lat="12.729354">
                <ele>105.400000</ele>
                <time>2014-09-28T03:54:13Z</time>
            </trkpt>
            <trkpt lon="99.866947" lat="12.729546">
                <ele>106.840000</ele>
                <time>2014-09-28T03:54:39Z</time>
            </trkpt>
            <trkpt lon="99.867704" lat="12.729745">
                <ele>105.400000</ele>
                <time>2014-09-28T03:55:15Z</time>
            </trkpt>
            <trkpt lon="99.867846" lat="12.729614">
                <ele>101.560000</ele>
                <time>2014-09-28T03:55:41Z</time>
            </trkpt>
            <trkpt lon="99.869021" lat="12.729584">
                <ele>101.560000</ele>
                <time>2014-09-28T03:56:46Z</time>
            </trkpt>
            <trkpt lon="99.869300" lat="12.729563">
                <ele>100.110000</ele>
                <time>2014-09-28T03:56:53Z</time>
            </trkpt>
            <trkpt lon="99.869393" lat="12.729557">
                <ele>100.110000</ele>
                <time>2014-09-28T03:56:55Z</time>
            </trkpt>
            <trkpt lon="99.869986" lat="12.729515">
                <ele>97.710000</ele>
                <time>2014-09-28T03:57:11Z</time>
            </trkpt>
            <trkpt lon="99.871209" lat="12.729431">
                <ele>86.180000</ele>
                <time>2014-09-28T03:57:45Z</time>
            </trkpt>
            <trkpt lon="99.874341" lat="12.729090">
                <ele>78.480000</ele>
                <time>2014-09-28T03:59:03Z</time>
            </trkpt>
            <trkpt lon="99.874520" lat="12.730131">
                <ele>81.850000</ele>
                <time>2014-09-28T04:00:03Z</time>
            </trkpt>
            <trkpt lon="99.874665" lat="12.729989">
                <ele>81.370000</ele>
                <time>2014-09-28T04:00:15Z</time>
            </trkpt>
            <trkpt lon="99.875091" lat="12.729796">
                <ele>79.930000</ele>
                <time>2014-09-28T04:00:28Z</time>
            </trkpt>
            <trkpt lon="99.875435" lat="12.729925">
                <ele>78.970000</ele>
                <time>2014-09-28T04:00:39Z</time>
            </trkpt>
            <trkpt lon="99.875639" lat="12.730218">
                <ele>79.450000</ele>
                <time>2014-09-28T04:00:53Z</time>
            </trkpt>
            <trkpt lon="99.875937" lat="12.730633">
                <ele>79.450000</ele>
                <time>2014-09-28T04:01:14Z</time>
            </trkpt>
            <trkpt lon="99.876092" lat="12.730630">
                <ele>78.480000</ele>
                <time>2014-09-28T04:01:19Z</time>
            </trkpt>
            <trkpt lon="99.876217" lat="12.730583">
                <ele>78.000000</ele>
                <time>2014-09-28T04:01:23Z</time>
            </trkpt>
            <trkpt lon="99.876405" lat="12.730759">
                <ele>78.000000</ele>
                <time>2014-09-28T04:01:33Z</time>
            </trkpt>
            <trkpt lon="99.876812" lat="12.731514">
                <ele>78.000000</ele>
                <time>2014-09-28T04:01:58Z</time>
            </trkpt>
            <trkpt lon="99.877085" lat="12.731825">
                <ele>76.560000</ele>
                <time>2014-09-28T04:02:08Z</time>
            </trkpt>
            <trkpt lon="99.877474" lat="12.732496">
                <ele>76.080000</ele>
                <time>2014-09-28T04:02:30Z</time>
            </trkpt>
            <trkpt lon="99.877468" lat="12.732864">
                <ele>81.370000</ele>
                <time>2014-09-28T04:03:03Z</time>
            </trkpt>
            <trkpt lon="99.877464" lat="12.732935">
                <ele>79.450000</ele>
                <time>2014-09-28T04:03:20Z</time>
            </trkpt>
            <trkpt lon="99.877482" lat="12.733351">
                <ele>78.970000</ele>
                <time>2014-09-28T04:03:35Z</time>
            </trkpt>
            <trkpt lon="99.877569" lat="12.733624">
                <ele>86.180000</ele>
                <time>2014-09-28T04:04:18Z</time>
            </trkpt>
            <trkpt lon="99.877751" lat="12.733718">
                <ele>87.620000</ele>
                <time>2014-09-28T04:04:36Z</time>
            </trkpt>
            <trkpt lon="99.877939" lat="12.733754">
                <ele>88.100000</ele>
                <time>2014-09-28T04:04:44Z</time>
            </trkpt>
            <trkpt lon="99.878423" lat="12.733693">
                <ele>86.180000</ele>
                <time>2014-09-28T04:05:07Z</time>
            </trkpt>
            <trkpt lon="99.878618" lat="12.733022">
                <ele>80.410000</ele>
                <time>2014-09-28T04:05:29Z</time>
            </trkpt>
            <trkpt lon="99.879196" lat="12.732401">
                <ele>83.770000</ele>
                <time>2014-09-28T04:05:55Z</time>
            </trkpt>
            <trkpt lon="99.879422" lat="12.732249">
                <ele>86.660000</ele>
                <time>2014-09-28T04:06:09Z</time>
            </trkpt>
            <trkpt lon="99.879953" lat="12.732021">
                <ele>85.210000</ele>
                <time>2014-09-28T04:06:25Z</time>
            </trkpt>
            <trkpt lon="99.880252" lat="12.731742">
                <ele>87.620000</ele>
                <time>2014-09-28T04:06:37Z</time>
            </trkpt>
            <trkpt lon="99.880681" lat="12.730808">
                <ele>81.370000</ele>
                <time>2014-09-28T04:07:02Z</time>
            </trkpt>
            <trkpt lon="99.880868" lat="12.730338">
                <ele>76.560000</ele>
                <time>2014-09-28T04:07:15Z</time>
            </trkpt>
            <trkpt lon="99.881946" lat="12.730064">
                <ele>78.970000</ele>
                <time>2014-09-28T04:07:48Z</time>
            </trkpt>
            <trkpt lon="99.884004" lat="12.729420">
                <ele>69.350000</ele>
                <time>2014-09-28T04:08:46Z</time>
            </trkpt>
            <trkpt lon="99.884352" lat="12.729316">
                <ele>68.390000</ele>
                <time>2014-09-28T04:08:56Z</time>
            </trkpt>
            <trkpt lon="99.884899" lat="12.729212">
                <ele>70.310000</ele>
                <time>2014-09-28T04:09:21Z</time>
            </trkpt>
            <trkpt lon="99.885907" lat="12.729249">
                <ele>73.680000</ele>
                <time>2014-09-28T04:10:01Z</time>
            </trkpt>
            <trkpt lon="99.886263" lat="12.729057">
                <ele>74.160000</ele>
                <time>2014-09-28T04:10:12Z</time>
            </trkpt>
            <trkpt lon="99.886603" lat="12.728430">
                <ele>71.270000</ele>
                <time>2014-09-28T04:10:30Z</time>
            </trkpt>
            <trkpt lon="99.886719" lat="12.728374">
                <ele>70.310000</ele>
                <time>2014-09-28T04:10:33Z</time>
            </trkpt>
            <trkpt lon="99.887171" lat="12.728076">
                <ele>69.350000</ele>
                <time>2014-09-28T04:10:49Z</time>
            </trkpt>
            <trkpt lon="99.887185" lat="12.728024">
                <ele>69.350000</ele>
                <time>2014-09-28T04:10:51Z</time>
            </trkpt>
            <trkpt lon="99.887356" lat="12.727592">
                <ele>64.550000</ele>
                <time>2014-09-28T04:11:07Z</time>
            </trkpt>
            <trkpt lon="99.887464" lat="12.727502">
                <ele>64.070000</ele>
                <time>2014-09-28T04:11:12Z</time>
            </trkpt>
            <trkpt lon="99.887828" lat="12.727342">
                <ele>62.140000</ele>
                <time>2014-09-28T04:11:31Z</time>
            </trkpt>
            <trkpt lon="99.888158" lat="12.727567">
                <ele>59.740000</ele>
                <time>2014-09-28T04:11:45Z</time>
            </trkpt>
            <trkpt lon="99.888652" lat="12.727598">
                <ele>59.260000</ele>
                <time>2014-09-28T04:11:56Z</time>
            </trkpt>
            <trkpt lon="99.888889" lat="12.727782">
                <ele>57.820000</ele>
                <time>2014-09-28T04:12:06Z</time>
            </trkpt>
            <trkpt lon="99.888700" lat="12.728457">
                <ele>59.260000</ele>
                <time>2014-09-28T04:12:31Z</time>
            </trkpt>
            <trkpt lon="99.890387" lat="12.728421">
                <ele>62.620000</ele>
                <time>2014-09-28T04:13:27Z</time>
            </trkpt>
            <trkpt lon="99.890809" lat="12.728403">
                <ele>62.620000</ele>
                <time>2014-09-28T04:13:41Z</time>
            </trkpt>
            <trkpt lon="99.891403" lat="12.728620">
                <ele>67.430000</ele>
                <time>2014-09-28T04:14:07Z</time>
            </trkpt>
            <trkpt lon="99.891588" lat="12.728854">
                <ele>67.910000</ele>
                <time>2014-09-28T04:14:18Z</time>
            </trkpt>
            <trkpt lon="99.892017" lat="12.728939">
                <ele>67.910000</ele>
                <time>2014-09-28T04:14:32Z</time>
            </trkpt>
            <trkpt lon="99.896747" lat="12.728477">
                <ele>56.370000</ele>
                <time>2014-09-28T04:16:08Z</time>
            </trkpt>
            <trkpt lon="99.897175" lat="12.728313">
                <ele>56.370000</ele>
                <time>2014-09-28T04:16:18Z</time>
            </trkpt>
            <trkpt lon="99.897273" lat="12.728253">
                <ele>55.890000</ele>
                <time>2014-09-28T04:16:21Z</time>
            </trkpt>
            <trkpt lon="99.897969" lat="12.728171">
                <ele>53.970000</ele>
                <time>2014-09-28T04:16:38Z</time>
            </trkpt>
            <trkpt lon="99.898210" lat="12.727924">
                <ele>50.130000</ele>
                <time>2014-09-28T04:16:48Z</time>
            </trkpt>
            <trkpt lon="99.898347" lat="12.727142">
                <ele>45.320000</ele>
                <time>2014-09-28T04:17:04Z</time>
            </trkpt>
            <trkpt lon="99.899072" lat="12.723790">
                <ele>44.360000</ele>
                <time>2014-09-28T04:18:13Z</time>
            </trkpt>
            <trkpt lon="99.902119" lat="12.724773">
                <ele>42.440000</ele>
                <time>2014-09-28T04:19:24Z</time>
            </trkpt>
            <trkpt lon="99.902931" lat="12.724636">
                <ele>42.920000</ele>
                <time>2014-09-28T04:19:42Z</time>
            </trkpt>
            <trkpt lon="99.903647" lat="12.724221">
                <ele>42.920000</ele>
                <time>2014-09-28T04:19:59Z</time>
            </trkpt>
            <trkpt lon="99.905017" lat="12.723404">
                <ele>41.470000</ele>
                <time>2014-09-28T04:20:30Z</time>
            </trkpt>
            <trkpt lon="99.905664" lat="12.723155">
                <ele>40.990000</ele>
                <time>2014-09-28T04:20:45Z</time>
            </trkpt>
            <trkpt lon="99.906107" lat="12.723109">
                <ele>40.510000</ele>
                <time>2014-09-28T04:20:58Z</time>
            </trkpt>
            <trkpt lon="99.906189" lat="12.723146">
                <ele>44.360000</ele>
                <time>2014-09-28T04:39:08Z</time>
            </trkpt>
            <trkpt lon="99.906100" lat="12.723116">
                <ele>44.360000</ele>
                <time>2014-09-28T04:39:16Z</time>
            </trkpt>
            <trkpt lon="99.906076" lat="12.723118">
                <ele>44.360000</ele>
                <time>2014-09-28T04:39:17Z</time>
            </trkpt>
            <trkpt lon="99.905600" lat="12.723213">
                <ele>43.880000</ele>
                <time>2014-09-28T04:39:36Z</time>
            </trkpt>
            <trkpt lon="99.905565" lat="12.723264">
                <ele>43.880000</ele>
                <time>2014-09-28T04:39:38Z</time>
            </trkpt>
            <trkpt lon="99.905539" lat="12.723366">
                <ele>43.880000</ele>
                <time>2014-09-28T04:39:41Z</time>
            </trkpt>
            <trkpt lon="99.905466" lat="12.724337">
                <ele>40.030000</ele>
                <time>2014-09-28T04:40:03Z</time>
            </trkpt>
            <trkpt lon="99.905384" lat="12.725157">
                <ele>40.030000</ele>
                <time>2014-09-28T04:40:20Z</time>
            </trkpt>
            <trkpt lon="99.905832" lat="12.725590">
                <ele>40.990000</ele>
                <time>2014-09-28T04:40:37Z</time>
            </trkpt>
            <trkpt lon="99.906368" lat="12.725151">
                <ele>41.470000</ele>
                <time>2014-09-28T04:40:54Z</time>
            </trkpt>
            <trkpt lon="99.907332" lat="12.724325">
                <ele>40.990000</ele>
                <time>2014-09-28T04:41:18Z</time>
            </trkpt>
            <trkpt lon="99.907922" lat="12.723866">
                <ele>39.550000</ele>
                <time>2014-09-28T04:41:33Z</time>
            </trkpt>
            <trkpt lon="99.907992" lat="12.723929">
                <ele>39.550000</ele>
                <time>2014-09-28T04:41:36Z</time>
            </trkpt>
            <trkpt lon="99.908605" lat="12.726909">
                <ele>41.950000</ele>
                <time>2014-09-28T04:42:43Z</time>
            </trkpt>
            <trkpt lon="99.908581" lat="12.727000">
                <ele>41.950000</ele>
                <time>2014-09-28T04:42:47Z</time>
            </trkpt>
            <trkpt lon="99.909083" lat="12.728626">
                <ele>39.070000</ele>
                <time>2014-09-28T04:43:30Z</time>
            </trkpt>
            <trkpt lon="99.909388" lat="12.728808">
                <ele>39.070000</ele>
                <time>2014-09-28T04:43:40Z</time>
            </trkpt>
            <trkpt lon="99.909643" lat="12.728746">
                <ele>38.590000</ele>
                <time>2014-09-28T04:43:49Z</time>
            </trkpt>
            <trkpt lon="99.910273" lat="12.728364">
                <ele>37.150000</ele>
                <time>2014-09-28T04:44:07Z</time>
            </trkpt>
            <trkpt lon="99.910603" lat="12.727713">
                <ele>40.510000</ele>
                <time>2014-09-28T04:44:25Z</time>
            </trkpt>
            <trkpt lon="99.910788" lat="12.727554">
                <ele>40.030000</ele>
                <time>2014-09-28T04:44:31Z</time>
            </trkpt>
            <trkpt lon="99.911391" lat="12.727562">
                <ele>37.630000</ele>
                <time>2014-09-28T04:44:44Z</time>
            </trkpt>
            <trkpt lon="99.912467" lat="12.727274">
                <ele>35.710000</ele>
                <time>2014-09-28T04:45:08Z</time>
            </trkpt>
            <trkpt lon="99.912689" lat="12.727217">
                <ele>35.230000</ele>
                <time>2014-09-28T04:45:13Z</time>
            </trkpt>
            <trkpt lon="99.913748" lat="12.726436">
                <ele>33.780000</ele>
                <time>2014-09-28T04:45:42Z</time>
            </trkpt>
            <trkpt lon="99.914385" lat="12.726149">
                <ele>32.820000</ele>
                <time>2014-09-28T04:45:59Z</time>
            </trkpt>
            <trkpt lon="99.914420" lat="12.726136">
                <ele>32.340000</ele>
                <time>2014-09-28T04:46:00Z</time>
            </trkpt>
            <trkpt lon="99.914526" lat="12.726104">
                <ele>32.340000</ele>
                <time>2014-09-28T04:46:03Z</time>
            </trkpt>
            <trkpt lon="99.915060" lat="12.725747">
                <ele>31.860000</ele>
                <time>2014-09-28T04:46:21Z</time>
            </trkpt>
            <trkpt lon="99.915714" lat="12.725889">
                <ele>30.900000</ele>
                <time>2014-09-28T04:46:39Z</time>
            </trkpt>
            <trkpt lon="99.916086" lat="12.725738">
                <ele>30.420000</ele>
                <time>2014-09-28T04:46:50Z</time>
            </trkpt>
            <trkpt lon="99.916035" lat="12.725314">
                <ele>30.900000</ele>
                <time>2014-09-28T04:47:05Z</time>
            </trkpt>
            <trkpt lon="99.916288" lat="12.725195">
                <ele>31.380000</ele>
                <time>2014-09-28T04:47:14Z</time>
            </trkpt>
            <trkpt lon="99.916259" lat="12.724819">
                <ele>32.340000</ele>
                <time>2014-09-28T04:47:35Z</time>
            </trkpt>
            <trkpt lon="99.916709" lat="12.724557">
                <ele>32.340000</ele>
                <time>2014-09-28T04:48:25Z</time>
            </trkpt>
            <trkpt lon="99.916613" lat="12.723956">
                <ele>33.300000</ele>
                <time>2014-09-28T04:48:44Z</time>
            </trkpt>
            <trkpt lon="99.916609" lat="12.723865">
                <ele>32.820000</ele>
                <time>2014-09-28T04:48:46Z</time>
            </trkpt>
            <trkpt lon="99.916560" lat="12.723218">
                <ele>32.820000</ele>
                <time>2014-09-28T04:49:01Z</time>
            </trkpt>
            <trkpt lon="99.918231" lat="12.723280">
                <ele>30.900000</ele>
                <time>2014-09-28T04:49:41Z</time>
            </trkpt>
            <trkpt lon="99.918480" lat="12.723155">
                <ele>30.900000</ele>
                <time>2014-09-28T04:50:04Z</time>
            </trkpt>
            <trkpt lon="99.917636" lat="12.722885">
                <ele>29.460000</ele>
                <time>2014-09-28T04:50:30Z</time>
            </trkpt>
            <trkpt lon="99.916996" lat="12.722456">
                <ele>30.420000</ele>
                <time>2014-09-28T04:50:47Z</time>
            </trkpt>
            <trkpt lon="99.916653" lat="12.722119">
                <ele>29.940000</ele>
                <time>2014-09-28T04:50:57Z</time>
            </trkpt>
            <trkpt lon="99.916030" lat="12.721931">
                <ele>29.940000</ele>
                <time>2014-09-28T04:51:13Z</time>
            </trkpt>
            <trkpt lon="99.916013" lat="12.720898">
                <ele>29.460000</ele>
                <time>2014-09-28T04:51:39Z</time>
            </trkpt>
            <trkpt lon="99.915878" lat="12.720571">
                <ele>29.460000</ele>
                <time>2014-09-28T04:51:51Z</time>
            </trkpt>
            <trkpt lon="99.915979" lat="12.719728">
                <ele>31.860000</ele>
                <time>2014-09-28T04:52:13Z</time>
            </trkpt>
            <trkpt lon="99.916358" lat="12.719491">
                <ele>31.380000</ele>
                <time>2014-09-28T04:52:24Z</time>
            </trkpt>
            <trkpt lon="99.917311" lat="12.719231">
                <ele>31.860000</ele>
                <time>2014-09-28T04:52:46Z</time>
            </trkpt>
            <trkpt lon="99.917329" lat="12.719044">
                <ele>31.860000</ele>
                <time>2014-09-28T04:52:51Z</time>
            </trkpt>
            <trkpt lon="99.916174" lat="12.716512">
                <ele>28.500000</ele>
                <time>2014-09-28T04:53:46Z</time>
            </trkpt>
            <trkpt lon="99.914767" lat="12.716474">
                <ele>29.940000</ele>
                <time>2014-09-28T04:54:16Z</time>
            </trkpt>
            <trkpt lon="99.914230" lat="12.716794">
                <ele>29.940000</ele>
                <time>2014-09-28T04:54:29Z</time>
            </trkpt>
            <trkpt lon="99.913438" lat="12.716983">
                <ele>30.420000</ele>
                <time>2014-09-28T04:54:44Z</time>
            </trkpt>
            <trkpt lon="99.912937" lat="12.716904">
                <ele>31.380000</ele>
                <time>2014-09-28T04:54:54Z</time>
            </trkpt>
            <trkpt lon="99.912717" lat="12.716893">
                <ele>31.380000</ele>
                <time>2014-09-28T04:54:58Z</time>
            </trkpt>
            <trkpt lon="99.911316" lat="12.718589">
                <ele>33.300000</ele>
                <time>2014-09-28T04:55:42Z</time>
            </trkpt>
            <trkpt lon="99.911259" lat="12.718711">
                <ele>33.300000</ele>
                <time>2014-09-28T04:55:45Z</time>
            </trkpt>
            <trkpt lon="99.909867" lat="12.718149">
                <ele>31.380000</ele>
                <time>2014-09-28T04:56:28Z</time>
            </trkpt>
            <trkpt lon="99.909085" lat="12.717979">
                <ele>34.740000</ele>
                <time>2014-09-28T04:56:56Z</time>
            </trkpt>
            <trkpt lon="99.908878" lat="12.717783">
                <ele>36.190000</ele>
                <time>2014-09-28T04:57:19Z</time>
            </trkpt>
            <trkpt lon="99.908242" lat="12.717559">
                <ele>35.710000</ele>
                <time>2014-09-28T04:57:55Z</time>
            </trkpt>
            <trkpt lon="99.906881" lat="12.719470">
                <ele>35.230000</ele>
                <time>2014-09-28T04:58:50Z</time>
            </trkpt>
            <trkpt lon="99.906388" lat="12.719703">
                <ele>34.740000</ele>
                <time>2014-09-28T04:59:01Z</time>
            </trkpt>
            <trkpt lon="99.906101" lat="12.719686">
                <ele>35.710000</ele>
                <time>2014-09-28T04:59:07Z</time>
            </trkpt>
            <trkpt lon="99.906012" lat="12.719715">
                <ele>35.710000</ele>
                <time>2014-09-28T04:59:09Z</time>
            </trkpt>
            <trkpt lon="99.905210" lat="12.720330">
                <ele>35.230000</ele>
                <time>2014-09-28T04:59:29Z</time>
            </trkpt>
            <trkpt lon="99.905042" lat="12.720467">
                <ele>35.710000</ele>
                <time>2014-09-28T04:59:35Z</time>
            </trkpt>
            <trkpt lon="99.903532" lat="12.716874">
                <ele>43.400000</ele>
                <time>2014-09-28T05:01:22Z</time>
            </trkpt>
            <trkpt lon="99.903712" lat="12.716679">
                <ele>42.920000</ele>
                <time>2014-09-28T05:01:31Z</time>
            </trkpt>
            <trkpt lon="99.903719" lat="12.715860">
                <ele>46.280000</ele>
                <time>2014-09-28T05:01:58Z</time>
            </trkpt>
            <trkpt lon="99.903657" lat="12.715462">
                <ele>46.760000</ele>
                <time>2014-09-28T05:02:10Z</time>
            </trkpt>
            <trkpt lon="99.902985" lat="12.715370">
                <ele>47.720000</ele>
                <time>2014-09-28T05:02:39Z</time>
            </trkpt>
            <trkpt lon="99.903098" lat="12.714744">
                <ele>50.610000</ele>
                <time>2014-09-28T05:02:57Z</time>
            </trkpt>
            <trkpt lon="99.902729" lat="12.713729">
                <ele>49.160000</ele>
                <time>2014-09-28T05:03:21Z</time>
            </trkpt>
            <trkpt lon="99.902820" lat="12.713356">
                <ele>49.650000</ele>
                <time>2014-09-28T05:03:29Z</time>
            </trkpt>
            <trkpt lon="99.903736" lat="12.712244">
                <ele>52.530000</ele>
                <time>2014-09-28T05:03:58Z</time>
            </trkpt>
            <trkpt lon="99.904013" lat="12.711784">
                <ele>53.490000</ele>
                <time>2014-09-28T05:04:08Z</time>
            </trkpt>
            <trkpt lon="99.903792" lat="12.710561">
                <ele>53.010000</ele>
                <time>2014-09-28T05:04:34Z</time>
            </trkpt>
            <trkpt lon="99.905888" lat="12.710662">
                <ele>46.280000</ele>
                <time>2014-09-28T05:05:19Z</time>
            </trkpt>
            <trkpt lon="99.906439" lat="12.710580">
                <ele>42.440000</ele>
                <time>2014-09-28T05:05:37Z</time>
            </trkpt>
            <trkpt lon="99.906297" lat="12.708618">
                <ele>40.990000</ele>
                <time>2014-09-28T05:06:34Z</time>
            </trkpt>
            <trkpt lon="99.905856" lat="12.708069">
                <ele>40.030000</ele>
                <time>2014-09-28T05:06:54Z</time>
            </trkpt>
            <trkpt lon="99.904926" lat="12.707502">
                <ele>42.440000</ele>
                <time>2014-09-28T05:07:40Z</time>
            </trkpt>
            <trkpt lon="99.904330" lat="12.707084">
                <ele>40.030000</ele>
                <time>2014-09-28T05:07:55Z</time>
            </trkpt>
            <trkpt lon="99.903436" lat="12.706440">
                <ele>40.990000</ele>
                <time>2014-09-28T05:08:29Z</time>
            </trkpt>
            <trkpt lon="99.904192" lat="12.706992">
                <ele>42.920000</ele>
                <time>2014-09-28T05:10:16Z</time>
            </trkpt>
            <trkpt lon="99.903441" lat="12.706482">
                <ele>44.360000</ele>
                <time>2014-09-28T05:10:35Z</time>
            </trkpt>
            <trkpt lon="99.902908" lat="12.707436">
                <ele>49.650000</ele>
                <time>2014-09-28T05:11:20Z</time>
            </trkpt>
            <trkpt lon="99.902851" lat="12.707381">
                <ele>50.130000</ele>
                <time>2014-09-28T05:11:25Z</time>
            </trkpt>
            <trkpt lon="99.903636" lat="12.705406">
                <ele>50.610000</ele>
                <time>2014-09-28T05:12:13Z</time>
            </trkpt>
            <trkpt lon="99.905351" lat="12.704453">
                <ele>51.090000</ele>
                <time>2014-09-28T05:12:49Z</time>
            </trkpt>
            <trkpt lon="99.905514" lat="12.704241">
                <ele>52.050000</ele>
                <time>2014-09-28T05:12:54Z</time>
            </trkpt>
            <trkpt lon="99.905735" lat="12.703569">
                <ele>53.970000</ele>
                <time>2014-09-28T05:13:07Z</time>
            </trkpt>
            <trkpt lon="99.905454" lat="12.702243">
                <ele>56.860000</ele>
                <time>2014-09-28T05:13:33Z</time>
            </trkpt>
            <trkpt lon="99.904781" lat="12.700451">
                <ele>50.610000</ele>
                <time>2014-09-28T05:14:07Z</time>
            </trkpt>
            <trkpt lon="99.903624" lat="12.698916">
                <ele>48.680000</ele>
                <time>2014-09-28T05:14:41Z</time>
            </trkpt>
            <trkpt lon="99.903401" lat="12.697427">
                <ele>53.010000</ele>
                <time>2014-09-28T05:15:10Z</time>
            </trkpt>
            <trkpt lon="99.903046" lat="12.696631">
                <ele>51.570000</ele>
                <time>2014-09-28T05:15:30Z</time>
            </trkpt>
            <trkpt lon="99.902613" lat="12.694834">
                <ele>52.530000</ele>
                <time>2014-09-28T05:16:07Z</time>
            </trkpt>
            <trkpt lon="99.902286" lat="12.694226">
                <ele>50.610000</ele>
                <time>2014-09-28T05:16:20Z</time>
            </trkpt>
            <trkpt lon="99.901620" lat="12.693792">
                <ele>50.130000</ele>
                <time>2014-09-28T05:16:37Z</time>
            </trkpt>
            <trkpt lon="99.901060" lat="12.693419">
                <ele>46.760000</ele>
                <time>2014-09-28T05:16:51Z</time>
            </trkpt>
            <trkpt lon="99.900625" lat="12.692824">
                <ele>48.200000</ele>
                <time>2014-09-28T05:17:08Z</time>
            </trkpt>
            <trkpt lon="99.900652" lat="12.692491">
                <ele>50.610000</ele>
                <time>2014-09-28T05:17:16Z</time>
            </trkpt>
            <trkpt lon="99.900417" lat="12.691990">
                <ele>53.010000</ele>
                <time>2014-09-28T05:17:31Z</time>
            </trkpt>
            <trkpt lon="99.900320" lat="12.691999">
                <ele>53.490000</ele>
                <time>2014-09-28T05:17:34Z</time>
            </trkpt>
            <trkpt lon="99.899197" lat="12.692226">
                <ele>58.300000</ele>
                <time>2014-09-28T05:18:15Z</time>
            </trkpt>
            <trkpt lon="99.899160" lat="12.692230">
                <ele>58.300000</ele>
                <time>2014-09-28T05:18:17Z</time>
            </trkpt>
            <trkpt lon="99.897117" lat="12.692436">
                <ele>67.910000</ele>
                <time>2014-09-28T05:19:27Z</time>
            </trkpt>
            <trkpt lon="99.895285" lat="12.692569">
                <ele>66.470000</ele>
                <time>2014-09-28T05:20:13Z</time>
            </trkpt>
            <trkpt lon="99.894871" lat="12.692545">
                <ele>64.070000</ele>
                <time>2014-09-28T05:20:22Z</time>
            </trkpt>
            <trkpt lon="99.894632" lat="12.692617">
                <ele>63.100000</ele>
                <time>2014-09-28T05:20:28Z</time>
            </trkpt>
            <trkpt lon="99.894460" lat="12.696880">
                <ele>56.860000</ele>
                <time>2014-09-28T05:21:59Z</time>
            </trkpt>
            <trkpt lon="99.894358" lat="12.697113">
                <ele>57.820000</ele>
                <time>2014-09-28T05:22:09Z</time>
            </trkpt>
            <trkpt lon="99.894186" lat="12.697127">
                <ele>59.260000</ele>
                <time>2014-09-28T05:22:14Z</time>
            </trkpt>
            <trkpt lon="99.893771" lat="12.697130">
                <ele>60.700000</ele>
                <time>2014-09-28T05:22:29Z</time>
            </trkpt>
            <trkpt lon="99.893546" lat="12.698242">
                <ele>64.550000</ele>
                <time>2014-09-28T05:23:07Z</time>
            </trkpt>
            <trkpt lon="99.893472" lat="12.698939">
                <ele>64.550000</ele>
                <time>2014-09-28T05:23:22Z</time>
            </trkpt>
            <trkpt lon="99.893419" lat="12.701057">
                <ele>60.700000</ele>
                <time>2014-09-28T05:23:57Z</time>
            </trkpt>
            <trkpt lon="99.893266" lat="12.704648">
                <ele>60.220000</ele>
                <time>2014-09-28T05:25:04Z</time>
            </trkpt>
            <trkpt lon="99.892412" lat="12.706055">
                <ele>66.950000</ele>
                <time>2014-09-28T05:25:52Z</time>
            </trkpt>
            <trkpt lon="99.892147" lat="12.706208">
                <ele>67.910000</ele>
                <time>2014-09-28T05:26:02Z</time>
            </trkpt>
            <trkpt lon="99.891230" lat="12.706209">
                <ele>67.910000</ele>
                <time>2014-09-28T05:26:20Z</time>
            </trkpt>
            <trkpt lon="99.890881" lat="12.706140">
                <ele>67.910000</ele>
                <time>2014-09-28T05:26:26Z</time>
            </trkpt>
            <trkpt lon="99.889883" lat="12.705745">
                <ele>68.390000</ele>
                <time>2014-09-28T05:26:45Z</time>
            </trkpt>
            <trkpt lon="99.889541" lat="12.706051">
                <ele>68.390000</ele>
                <time>2014-09-28T05:26:59Z</time>
            </trkpt>
            <trkpt lon="99.889612" lat="12.706200">
                <ele>73.200000</ele>
                <time>2014-09-28T05:29:57Z</time>
            </trkpt>
        </trkseg>
    </trk>
</gpx>